createdAt,value
2023-02-11T00:01:45.031Z,16.80
2023-02-11T00:04:11.507Z,16.30
2023-02-11T00:06:38.069Z,16.07
2023-02-11T00:09:04.882Z,16.37
2023-02-11T00:11:31.624Z,16.37
2023-02-11T00:13:59.281Z,16.73
2023-02-11T00:16:25.796Z,15.60
2023-02-11T00:18:54.047Z,16.70
2023-02-11T00:21:24.590Z,16.57
2023-02-11T00:23:51.364Z,16.60
2023-02-11T00:26:27.880Z,16.20
2023-02-11T00:28:54.486Z,15.63
2023-02-11T00:31:22.521Z,14.20
2023-02-11T00:33:49.119Z,14.57
2023-02-11T00:36:20.242Z,16.97
2023-02-11T00:38:47.345Z,14.70
2023-02-11T00:41:14.324Z,15.73
2023-02-11T00:43:41.187Z,15.80
2023-02-11T00:46:08.228Z,15.50
2023-02-11T00:48:34.803Z,14.70
2023-02-11T00:51:01.727Z,14.97
2023-02-11T00:53:28.182Z,16.47
2023-02-11T00:55:54.656Z,14.93
2023-02-11T00:58:22.400Z,15.83
2023-02-11T01:00:49.287Z,16.13
2023-02-11T01:03:15.854Z,16.27
2023-02-11T01:05:42.364Z,14.70
2023-02-11T01:08:08.880Z,16.37
2023-02-11T01:10:35.314Z,16.00
2023-02-11T01:13:02.458Z,15.83
2023-02-11T01:15:29.012Z,14.43
2023-02-11T01:17:55.566Z,13.87
2023-02-11T01:20:24.155Z,14.60
2023-02-11T01:22:50.653Z,15.87
2023-02-11T01:25:17.251Z,14.33
2023-02-11T01:27:43.742Z,13.70
2023-02-11T01:30:12.239Z,14.80
2023-02-11T01:32:38.909Z,14.87
2023-02-11T01:35:05.805Z,14.00
2023-02-11T01:37:33.354Z,14.67
2023-02-11T01:40:01.296Z,13.83
2023-02-11T01:42:27.819Z,13.97
2023-02-11T01:44:54.869Z,14.33
2023-02-11T01:47:21.796Z,13.53
2023-02-11T01:49:52.993Z,14.03
2023-02-11T01:55:07.791Z,13.63
2023-02-11T01:57:36.082Z,15.60
2023-02-11T02:00:20.385Z,13.93
2023-02-11T02:03:01.868Z,12.60
2023-02-11T02:05:51.901Z,13.23
2023-02-11T02:08:18.687Z,13.47
2023-02-11T02:10:53.191Z,14.53
2023-02-11T02:13:19.785Z,14.13
2023-02-11T02:15:57.009Z,14.27
2023-02-11T02:18:42.332Z,13.87
2023-02-11T02:21:27.624Z,13.10
2023-02-11T02:24:09.022Z,13.50
2023-02-11T02:26:54.430Z,15.63
2023-02-11T02:29:20.924Z,15.47
2023-02-11T02:31:56.816Z,14.83
2023-02-11T02:34:35.046Z,16.03
2023-02-11T02:37:09.081Z,15.33
2023-02-11T02:39:36.560Z,16.03
2023-02-11T02:42:04.286Z,15.47
2023-02-11T02:44:31.009Z,13.93
2023-02-11T02:46:57.761Z,15.10
2023-02-11T02:49:24.340Z,14.90
2023-02-11T02:52:02.877Z,14.57
2023-02-11T02:54:41.416Z,14.27
2023-02-11T02:57:28.734Z,14.67
2023-02-11T03:00:10.499Z,15.10
2023-02-11T03:02:55.637Z,14.00
2023-02-11T03:05:30.819Z,13.87
2023-02-11T03:08:09.305Z,15.80
2023-02-11T03:10:42.412Z,14.43
2023-02-11T03:13:09.136Z,13.47
2023-02-11T03:15:38.740Z,13.37
2023-02-11T03:18:06.740Z,12.30
2023-02-11T03:20:36.498Z,12.97
2023-02-11T03:23:08.798Z,13.97
2023-02-11T03:25:37.376Z,17.23
2023-02-11T03:28:07.399Z,14.77
2023-02-11T03:30:39.046Z,14.50
2023-02-11T03:33:17.694Z,13.57
2023-02-11T03:36:04.606Z,14.70
2023-02-11T03:38:33.129Z,15.40
2023-02-11T03:41:02.096Z,15.37
2023-02-11T03:43:33.991Z,14.17
2023-02-11T03:46:01.368Z,14.63
2023-02-11T03:48:32.628Z,15.80
2023-02-11T03:51:01.059Z,14.53
2023-02-11T03:53:27.572Z,14.63
2023-02-11T03:55:55.260Z,14.13
2023-02-11T03:58:21.854Z,14.30
2023-02-11T04:00:48.441Z,13.87
2023-02-11T04:03:15.021Z,14.70
2023-02-11T04:05:41.691Z,14.33
2023-02-11T04:08:08.618Z,14.17
2023-02-11T04:10:35.459Z,14.67
2023-02-11T04:13:15.150Z,14.37
2023-02-11T04:15:41.814Z,13.40
2023-02-11T04:18:08.389Z,12.67
2023-02-11T04:20:34.914Z,13.13
2023-02-11T04:23:01.413Z,13.40
2023-02-11T04:25:27.908Z,12.50
2023-02-11T04:27:54.435Z,11.27
2023-02-11T04:30:20.904Z,12.30
2023-02-11T04:32:47.384Z,11.57
2023-02-11T04:35:14.315Z,11.50
2023-02-11T04:37:40.900Z,11.40
2023-02-11T04:40:07.544Z,10.37
2023-02-11T04:42:34.056Z,10.47
2023-02-11T04:45:00.507Z,9.87
2023-02-11T04:47:27.091Z,10.57
2023-02-11T04:49:53.603Z,10.87
2023-02-11T04:52:20.113Z,10.10
2023-02-11T04:54:46.580Z,10.10
2023-02-11T04:57:13.064Z,11.00
2023-02-11T04:59:40.587Z,10.53
2023-02-11T05:02:07.021Z,10.23
2023-02-11T05:04:33.601Z,11.43
2023-02-11T05:07:00.110Z,11.60
2023-02-11T05:09:26.857Z,10.67
2023-02-11T05:11:53.656Z,10.73
2023-02-11T05:14:20.334Z,11.10
2023-02-11T05:16:46.934Z,9.73
2023-02-11T05:19:13.471Z,9.97
2023-02-11T05:21:41.047Z,10.53
2023-02-11T05:24:12.167Z,9.10
2023-02-11T05:26:38.713Z,10.20
2023-02-11T05:29:05.237Z,11.40
2023-02-11T05:31:32.720Z,10.27
2023-02-11T05:33:59.228Z,10.93
2023-02-11T05:36:25.728Z,9.67
2023-02-11T05:38:52.192Z,8.93
2023-02-11T05:41:19.226Z,9.30
2023-02-11T05:43:47.712Z,7.60
2023-02-11T05:46:14.248Z,7.87
2023-02-11T05:48:40.772Z,8.67
2023-02-11T05:51:07.376Z,9.60
2023-02-11T05:53:33.838Z,8.30
2023-02-11T05:56:00.415Z,8.87
2023-02-11T05:58:27.205Z,8.73
2023-02-11T06:00:53.633Z,9.43
2023-02-11T06:03:20.341Z,9.43
2023-02-11T06:05:46.848Z,9.53
2023-02-11T06:08:13.428Z,9.03
2023-02-11T06:10:42.463Z,8.40
2023-02-11T06:13:09.059Z,8.37
2023-02-11T06:15:35.479Z,8.47
2023-02-11T06:18:01.985Z,9.63
2023-02-11T06:20:28.626Z,9.53
2023-02-11T06:22:55.279Z,8.70
2023-02-11T06:25:21.851Z,9.27
2023-02-11T06:27:48.450Z,8.23
2023-02-11T06:30:14.961Z,9.40
2023-02-11T06:32:44.889Z,9.23
2023-02-11T06:35:12.924Z,8.57
2023-02-11T06:37:39.803Z,8.20
2023-02-11T06:40:06.752Z,8.63
2023-02-11T06:42:33.173Z,8.40
2023-02-11T06:44:59.708Z,8.87
2023-02-11T06:47:26.234Z,10.03
2023-02-11T06:49:52.760Z,11.77
2023-02-11T06:52:19.213Z,11.00
2023-02-11T06:54:45.722Z,10.13
2023-02-11T06:57:12.247Z,10.07
2023-02-11T06:59:38.758Z,10.07
2023-02-11T07:02:05.335Z,8.60
2023-02-11T07:04:31.781Z,10.20
2023-02-11T07:06:58.245Z,9.90
2023-02-11T07:09:24.771Z,9.80
2023-02-11T07:11:51.288Z,8.97
2023-02-11T07:14:17.770Z,10.23
2023-02-11T07:16:44.290Z,9.50
2023-02-11T07:19:10.818Z,8.50
2023-02-11T07:21:37.374Z,9.40
2023-02-11T07:24:08.285Z,9.37
2023-02-11T07:26:37.080Z,10.33
2023-02-11T07:29:03.544Z,14.03
2023-02-11T07:31:30.750Z,10.40
2023-02-11T07:33:59.755Z,10.03
2023-02-11T07:36:27.274Z,10.00
2023-02-11T07:38:53.973Z,11.80
2023-02-11T07:41:21.917Z,12.07
2023-02-11T07:43:48.550Z,14.13
2023-02-11T07:46:19.545Z,15.83
2023-02-11T07:48:46.547Z,14.50
2023-02-11T07:51:16.985Z,14.10
2023-02-11T07:53:43.701Z,9.93
2023-02-11T07:56:10.851Z,12.73
2023-02-11T07:58:37.732Z,14.03
2023-02-11T08:01:05.377Z,13.30
2023-02-11T08:03:32.148Z,13.47
2023-02-11T08:05:58.959Z,12.13
2023-02-11T08:08:28.382Z,9.37
2023-02-11T08:10:54.927Z,12.90
2023-02-11T08:13:21.455Z,11.43
2023-02-11T08:15:48.275Z,13.47
2023-02-11T08:18:14.919Z,11.83
2023-02-11T08:20:41.649Z,11.00
2023-02-11T08:23:08.195Z,7.83
2023-02-11T08:25:34.734Z,7.80
2023-02-11T08:28:01.257Z,8.20
2023-02-11T08:30:27.852Z,8.83
2023-02-11T08:32:54.361Z,9.60
2023-02-11T08:35:20.915Z,10.30
2023-02-11T08:37:47.502Z,14.93
2023-02-11T08:40:14.030Z,14.67
2023-02-11T08:42:40.560Z,12.63
2023-02-11T08:45:08.229Z,12.63
2023-02-11T08:47:34.940Z,10.13
2023-02-11T08:50:01.560Z,12.40
2023-02-11T08:52:28.054Z,10.60
2023-02-11T08:54:54.549Z,9.63
2023-02-11T08:57:21.048Z,9.97
2023-02-11T08:59:47.516Z,10.27
2023-02-11T09:02:14.584Z,12.10
2023-02-11T09:04:41.123Z,12.63
2023-02-11T09:07:07.747Z,12.10
2023-02-11T09:09:34.270Z,12.83
2023-02-11T09:12:01.384Z,11.87
2023-02-11T09:14:27.962Z,12.50
2023-02-11T09:16:54.452Z,12.20
2023-02-11T09:19:21.311Z,11.83
2023-02-11T09:21:47.934Z,11.87
2023-02-11T09:24:15.013Z,12.40
2023-02-11T09:26:41.746Z,21.83
2023-02-11T09:29:08.297Z,13.47
2023-02-11T09:31:35.050Z,13.90
2023-02-11T09:34:04.339Z,8.03
2023-02-11T09:36:37.246Z,8.03
2023-02-11T09:39:04.435Z,7.00
2023-02-11T09:41:40.180Z,6.30
2023-02-11T09:44:08.084Z,6.50
2023-02-11T09:46:36.456Z,6.20
2023-02-11T09:49:04.731Z,6.13
2023-02-11T09:51:43.421Z,6.60
2023-02-11T09:54:36.041Z,6.37
2023-02-11T09:57:02.630Z,7.47
2023-02-11T09:59:29.178Z,8.60
2023-02-11T10:02:13.332Z,7.57
2023-02-11T10:04:58.151Z,7.67
2023-02-11T10:07:44.909Z,6.43
2023-02-11T10:10:26.556Z,6.33
2023-02-11T10:13:05.203Z,7.20
2023-02-11T10:15:46.907Z,6.80
2023-02-11T10:18:31.594Z,7.10
2023-02-11T10:21:03.939Z,7.80
2023-02-11T10:23:33.612Z,9.10
2023-02-11T10:26:00.598Z,7.60
2023-02-11T10:28:31.221Z,13.23
2023-02-11T10:30:59.502Z,11.57
2023-02-11T10:33:26.115Z,8.70
2023-02-11T10:35:52.845Z,9.20
2023-02-11T10:38:19.319Z,8.07
2023-02-11T10:40:45.865Z,8.37
2023-02-11T10:43:16.154Z,8.87
2023-02-11T10:45:44.622Z,8.20
2023-02-11T10:48:29.825Z,8.17
2023-02-11T10:51:19.635Z,8.30
2023-02-11T10:53:47.101Z,8.13
2023-02-11T10:56:22.354Z,8.50
2023-02-11T10:59:05.552Z,8.20
2023-02-11T11:01:39.992Z,8.50
2023-02-11T11:04:06.707Z,8.13
2023-02-11T11:06:33.584Z,7.57
2023-02-11T11:09:01.088Z,8.67
2023-02-11T11:11:27.719Z,8.37
2023-02-11T11:13:59.119Z,8.63
2023-02-11T11:16:25.785Z,8.23
2023-02-11T11:18:53.941Z,7.87
2023-02-11T11:21:22.995Z,7.70
2023-02-11T11:23:51.467Z,7.27
2023-02-11T11:26:18.622Z,7.40
2023-02-11T11:29:02.416Z,7.50
2023-02-11T11:31:34.014Z,8.30
2023-02-11T11:34:03.336Z,6.93
2023-02-11T11:36:48.116Z,8.03
2023-02-11T11:39:25.240Z,7.97
2023-02-11T11:41:53.453Z,8.27
2023-02-11T11:44:28.985Z,7.40
2023-02-11T11:47:07.374Z,8.20
2023-02-11T11:49:37.701Z,7.60
2023-02-11T11:52:13.986Z,7.25
2023-02-11T11:54:42.875Z,7.53
2023-02-11T11:57:15.242Z,6.97
2023-02-11T11:59:41.743Z,6.97
2023-02-11T12:02:17.287Z,6.80
2023-02-11T12:04:55.730Z,7.00
2023-02-11T12:07:26.039Z,6.97
2023-02-11T12:10:07.893Z,6.80
2023-02-11T12:12:46.981Z,6.40
2023-02-11T12:15:32.505Z,6.43
2023-02-11T12:18:14.018Z,6.53
2023-02-11T12:20:55.415Z,6.70
2023-02-11T12:26:00.339Z,6.27
2023-02-11T12:28:32.444Z,5.53
2023-02-11T12:31:05.507Z,5.77
2023-02-11T12:33:50.660Z,6.20
2023-02-11T12:36:20.674Z,6.20
2023-02-11T12:39:07.546Z,6.15
2023-02-11T12:42:01.172Z,6.32
2023-02-11T12:44:41.759Z,6.33
2023-02-11T12:47:20.527Z,6.22
2023-02-11T12:49:57.683Z,6.10
2023-02-11T12:52:34.245Z,5.78
2023-02-11T12:55:03.267Z,5.95
2023-02-11T12:57:32.105Z,5.70
2023-02-11T13:00:05.039Z,5.68
2023-02-11T13:02:34.745Z,5.68
2023-02-11T13:05:19.683Z,6.38
2023-02-11T13:07:47.530Z,5.50
2023-02-11T13:10:14.033Z,6.55
2023-02-11T13:13:02.365Z,5.60
2023-02-11T13:15:30.249Z,6.15
2023-02-11T13:18:04.627Z,6.90
2023-02-11T13:20:43.605Z,6.32
2023-02-11T13:23:16.128Z,6.10
2023-02-11T13:26:08.777Z,5.85
2023-02-11T13:28:40.750Z,6.75
2023-02-11T13:31:08.719Z,6.38
2023-02-11T13:33:45.807Z,6.63
2023-02-11T13:36:14.598Z,6.80
2023-02-11T13:38:41.658Z,6.72
2023-02-11T13:41:16.711Z,6.60
2023-02-11T13:43:43.773Z,6.60
2023-02-11T13:46:15.047Z,7.22
2023-02-11T13:51:09.918Z,7.22
2023-02-11T13:53:48.735Z,7.38
2023-02-11T13:56:24.512Z,7.15
2023-02-11T13:58:51.352Z,8.45
2023-02-11T14:01:38.880Z,7.85
2023-02-11T14:04:34.783Z,8.23
2023-02-11T14:07:39.719Z,10.88
2023-02-11T14:10:26.313Z,7.85
2023-02-11T14:13:06.438Z,7.70
2023-02-11T14:15:39.605Z,6.75
2023-02-11T14:18:24.907Z,8.07
2023-02-11T14:20:53.740Z,9.30
2023-02-11T14:23:22.529Z,8.25
2023-02-11T14:25:55.678Z,8.13
2023-02-11T14:28:24.588Z,7.90
2023-02-11T14:30:59.866Z,7.45
2023-02-11T14:33:29.373Z,7.82
2023-02-11T14:36:18.560Z,7.68
2023-02-11T14:38:58.208Z,7.45
2023-02-11T14:41:24.689Z,6.90
2023-02-11T14:44:03.694Z,6.88
2023-02-11T14:46:30.747Z,6.90
2023-02-11T14:48:59.594Z,9.98
2023-02-11T14:51:28.052Z,11.35
2023-02-11T14:53:57.890Z,11.50
2023-02-11T14:56:26.408Z,8.02
2023-02-11T14:58:53.894Z,7.85
2023-02-11T15:01:23.616Z,23.42
2023-02-11T15:03:50.156Z,38.70
2023-02-11T15:06:18.781Z,32.33
2023-02-11T15:09:11.428Z,27.42
2023-02-11T15:11:41.591Z,19.73
2023-02-11T15:14:10.680Z,18.63
2023-02-11T15:16:41.312Z,19.80
2023-02-11T15:19:16.704Z,15.40
2023-02-11T15:21:45.286Z,13.73
2023-02-11T15:24:24.396Z,10.85
2023-02-11T15:27:01.235Z,10.43
2023-02-11T15:29:28.471Z,9.40
2023-02-11T15:32:13.380Z,7.83
2023-02-11T15:34:40.112Z,8.25
2023-02-11T15:37:06.720Z,10.30
2023-02-11T15:39:36.755Z,14.07
2023-02-11T15:42:22.055Z,13.57
2023-02-11T15:44:56.394Z,13.33
2023-02-11T15:47:23.394Z,14.67
2023-02-11T15:49:49.913Z,13.80
2023-02-11T15:52:23.050Z,11.33
2023-02-11T15:54:49.893Z,14.07
2023-02-11T15:57:17.868Z,12.83
2023-02-11T15:59:50.615Z,11.17
2023-02-11T16:02:19.546Z,7.83
2023-02-11T16:04:53.720Z,7.43
2023-02-11T16:07:41.243Z,7.03
2023-02-11T16:10:24.681Z,6.63
2023-02-11T16:13:11.388Z,7.10
2023-02-11T16:15:40.902Z,6.53
2023-02-11T16:18:37.354Z,7.53
2023-02-11T16:21:06.118Z,8.43
2023-02-11T16:23:34.428Z,9.10
2023-02-11T16:26:09.496Z,7.90
2023-02-11T16:28:37.140Z,9.53
2023-02-11T16:31:04.434Z,9.00
2023-02-11T16:33:31.229Z,8.67
2023-02-11T16:35:57.969Z,8.57
2023-02-11T16:38:24.634Z,7.23
2023-02-11T16:40:51.540Z,7.00
2023-02-11T16:43:19.493Z,7.63
2023-02-11T16:45:46.612Z,7.70
2023-02-11T16:48:15.416Z,8.10
2023-02-11T16:50:44.536Z,8.40
2023-02-11T16:53:11.603Z,10.67
2023-02-11T16:55:38.835Z,9.53
2023-02-11T16:58:06.425Z,8.40
2023-02-11T17:00:32.988Z,8.73
2023-02-11T17:02:59.536Z,10.60
2023-02-11T17:05:26.909Z,9.87
2023-02-11T17:07:53.353Z,9.27
2023-02-11T17:10:21.172Z,8.67
2023-02-11T17:12:48.395Z,9.47
2023-02-11T17:15:15.293Z,8.30
2023-02-11T17:17:41.841Z,8.93
2023-02-11T17:20:09.403Z,8.70
2023-02-11T17:22:35.916Z,8.17
2023-02-11T17:25:02.699Z,8.57
2023-02-11T17:27:29.303Z,8.90
2023-02-11T17:29:55.827Z,8.73
2023-02-11T17:32:22.346Z,9.90
2023-02-11T17:34:49.031Z,10.03
2023-02-11T17:37:15.488Z,9.23
2023-02-11T17:39:42.056Z,9.53
2023-02-11T17:42:08.805Z,10.57
2023-02-11T17:44:35.713Z,10.20
2023-02-11T17:47:02.226Z,10.70
2023-02-11T17:49:28.806Z,11.07
2023-02-11T17:51:55.303Z,11.83
2023-02-11T17:54:21.848Z,12.03
2023-02-11T17:56:50.697Z,13.00
2023-02-11T17:59:17.416Z,12.50
2023-02-11T18:01:43.960Z,13.83
2023-02-11T18:04:12.880Z,13.03
2023-02-11T18:06:39.368Z,12.73
2023-02-11T18:09:05.892Z,12.00
2023-02-11T18:11:33.353Z,12.63
2023-02-11T18:14:00.738Z,12.87
2023-02-11T18:16:29.445Z,13.13
2023-02-11T18:18:56.957Z,16.20
2023-02-11T18:21:23.907Z,13.50
2023-02-11T18:23:50.654Z,11.33
2023-02-11T18:26:18.312Z,12.13
2023-02-11T18:28:46.070Z,12.17
2023-02-11T18:31:13.850Z,12.10
2023-02-11T18:33:41.226Z,12.40
2023-02-11T18:36:08.590Z,12.27
2023-02-11T18:38:35.375Z,12.07
2023-02-11T18:41:02.159Z,12.67
2023-02-11T18:43:33.616Z,12.20
2023-02-11T18:46:00.826Z,11.60
2023-02-11T18:48:27.684Z,11.53
2023-02-11T18:50:54.945Z,13.10
2023-02-11T18:53:22.269Z,12.13
2023-02-11T18:55:48.803Z,12.07
2023-02-11T18:58:18.063Z,12.47
2023-02-11T19:00:46.642Z,12.20
2023-02-11T19:03:13.267Z,12.07
2023-02-11T19:05:49.561Z,12.43
2023-02-11T19:08:17.195Z,12.70
2023-02-11T19:10:44.795Z,15.07
2023-02-11T19:13:11.681Z,14.43
2023-02-11T19:15:44.846Z,13.87
2023-02-11T19:18:12.188Z,13.83
2023-02-11T19:20:39.794Z,14.50
2023-02-11T19:23:06.340Z,12.63
2023-02-11T19:25:32.909Z,10.90
2023-02-11T19:28:00.326Z,11.87
2023-02-11T19:30:27.215Z,11.67
2023-02-11T19:32:57.023Z,11.67
2023-02-11T19:35:24.194Z,11.13
2023-02-11T19:37:50.680Z,11.10
2023-02-11T19:40:17.616Z,9.93
2023-02-11T19:42:44.842Z,10.73
2023-02-11T19:45:11.444Z,11.17
2023-02-11T19:47:38.276Z,10.20
2023-02-11T19:50:05.349Z,10.20
2023-02-11T19:52:32.231Z,9.80
2023-02-11T19:54:59.679Z,10.17
2023-02-11T19:57:26.258Z,10.40
2023-02-11T19:59:54.824Z,9.70
2023-02-11T20:02:21.538Z,11.37
2023-02-11T20:04:48.452Z,10.80
2023-02-11T20:07:14.945Z,11.87
2023-02-11T20:09:42.597Z,13.30
2023-02-11T20:12:09.363Z,15.27
2023-02-11T20:14:35.997Z,50.17
2023-02-11T20:17:02.537Z,18.10
2023-02-11T20:19:30.596Z,15.53
2023-02-11T20:21:57.105Z,16.80
2023-02-11T20:24:23.716Z,14.00
2023-02-11T20:26:55.116Z,10.73
2023-02-11T20:29:21.752Z,11.57
2023-02-11T20:31:48.952Z,10.80
2023-02-11T20:34:17.553Z,11.40
2023-02-11T20:36:51.343Z,11.83
2023-02-11T20:39:18.566Z,12.07
2023-02-11T20:41:46.067Z,12.67
2023-02-11T20:44:13.098Z,12.47
2023-02-11T20:46:42.065Z,13.33
2023-02-11T20:49:12.508Z,12.63
2023-02-11T20:51:39.254Z,12.65
2023-02-11T20:54:06.449Z,12.30
2023-02-11T20:56:35.371Z,11.90
2023-02-11T20:59:02.346Z,13.27
2023-02-11T21:01:30.489Z,13.40
2023-02-11T21:03:58.350Z,12.67
2023-02-11T21:06:26.698Z,12.67
2023-02-11T21:08:53.768Z,13.67
2023-02-11T21:11:20.631Z,13.13
2023-02-11T21:13:48.697Z,13.37
2023-02-11T21:16:16.392Z,12.70
2023-02-11T21:18:42.936Z,12.30
2023-02-11T21:21:09.653Z,12.50
2023-02-11T21:23:36.200Z,12.13
2023-02-11T21:26:02.685Z,14.13
2023-02-11T21:28:29.421Z,14.53
2023-02-11T21:30:57.231Z,14.77
2023-02-11T21:33:24.890Z,17.50
2023-02-11T21:35:55.149Z,14.13
2023-02-11T21:38:22.293Z,13.55
2023-02-11T21:40:48.741Z,12.10
2023-02-11T21:43:15.432Z,12.03
2023-02-11T21:45:49.830Z,11.40
2023-02-11T21:48:17.144Z,11.83
2023-02-11T21:50:45.188Z,10.57
2023-02-11T21:53:12.078Z,11.27
2023-02-11T21:55:39.304Z,11.00
2023-02-11T21:58:06.281Z,10.93
2023-02-11T22:00:33.066Z,10.90
2023-02-11T22:02:59.574Z,12.27
2023-02-11T22:05:26.069Z,11.67
2023-02-11T22:07:52.575Z,12.60
2023-02-11T22:10:19.299Z,12.23
2023-02-11T22:12:46.245Z,11.03
2023-02-11T22:15:13.316Z,10.67
2023-02-11T22:17:39.869Z,10.53
2023-02-11T22:20:06.776Z,9.93
2023-02-11T22:22:33.388Z,12.27
2023-02-11T22:25:01.863Z,10.93
2023-02-11T22:27:28.344Z,12.23
2023-02-11T22:29:54.769Z,11.17
2023-02-11T22:32:21.568Z,10.93
2023-02-11T22:34:48.165Z,11.40
2023-02-11T22:37:15.055Z,10.93
2023-02-11T22:39:42.712Z,12.07
2023-02-11T22:42:09.387Z,11.53
2023-02-11T22:44:36.944Z,11.33
2023-02-11T22:47:03.417Z,11.83
2023-02-11T22:49:32.412Z,11.00
2023-02-11T22:51:59.302Z,11.33
2023-02-11T22:54:25.823Z,11.77
2023-02-11T22:56:52.506Z,12.27
2023-02-11T22:59:19.438Z,10.87
2023-02-11T23:01:46.206Z,10.80
2023-02-11T23:04:14.341Z,9.97
2023-02-11T23:06:40.836Z,10.57
2023-02-11T23:09:08.209Z,9.87
2023-02-11T23:11:35.427Z,11.60
2023-02-11T23:14:02.375Z,10.87
2023-02-11T23:16:31.143Z,11.83
2023-02-11T23:19:02.337Z,10.63
2023-02-11T23:21:30.339Z,10.80
2023-02-11T23:23:58.180Z,11.30
2023-02-11T23:26:24.870Z,11.47
2023-02-11T23:28:51.543Z,11.43
2023-02-11T23:31:19.756Z,11.63
2023-02-11T23:33:46.813Z,12.07
2023-02-11T23:36:13.505Z,13.00
2023-02-11T23:38:40.012Z,11.77
2023-02-11T23:41:06.580Z,12.07
2023-02-11T23:43:33.130Z,11.83
2023-02-11T23:45:59.644Z,8.20
2023-02-11T23:48:26.486Z,7.87
2023-02-11T23:50:52.972Z,7.73
2023-02-11T23:53:19.465Z,7.30
2023-02-11T23:55:46.154Z,7.30
2023-02-11T23:58:13.383Z,7.17
